Ridgely, Maryland
Current Conditions -  °F | °C
As of 5:50 PM on Thursday 23 Oct 2014 (Local Time) from KESN Reporting Station
Overcast Overcast  
Wind Chill: 63°   Ceiling: 4300
Heat Index: 63°   Visibility: 10mi
Dew Point: 50°   Wind: 9mph
Humidity: 63%   Direction: 340°NNW
Pressure: 29.85"   Gusts: NA
Location:  38.95°N, 75.89°W
Report Text: KESN 232150Z 34008KT 10SM OVC043 17/10 A2985
Loading
Personal Weather Stations






























Interactive Weather Map
Tropical Storm Tracking
New forecast layout! Learn more

10-Day Weather Forecast

Advertisements
Track Severe Weather on mobile